Time;durP1;ratioP1;P1;durP2;ratioP2;P2;SDS_P1;SDS_P2;PMS_P1;PMS_P2;Temp;Humidity;BMP_temperature;BMP_pressure;BME280_temperature;BME280_humidity;BME280_pressure;Samples;Min_cycle;Max_cycle;Signal;HPM_P1;HPM_P2
2022/08/23 04:05:51;;;;;;;3.42;2.63;;;;;;;23.63;71.20;100703.03;5095670;27;1393149;-83
2022/08/23 04:08:17;;;;;;;2.88;2.53;;;;;;;24.29;67.96;100707.56;5097983;28;20032;-84
2022/08/23 04:10:43;;;;;;;5.65;2.78;;;;;;;24.52;67.16;100696.38;5090623;28;20449;-86
2022/08/23 04:13:09;;;;;;;3.83;1.95;;;;;;;24.79;66.01;100701.38;5090134;28;20468;-85
2022/08/23 04:15:34;;;;;;;1.88;1.70;;;;;;;24.98;65.11;100692.28;5089500;28;20038;-86
2022/08/23 04:18:00;;;;;;;2.38;2.17;;;;;;;25.29;64.43;100710.94;5107066;28;20023;-85
2022/08/23 04:20:26;;;;;;;2.30;1.98;;;;;;;25.29;64.29;100715.41;5089671;28;20039;-84
2022/08/23 04:22:53;;;;;;;2.53;2.20;;;;;;;25.29;63.72;100689.78;5107946;28;20035;-84
2022/08/23 04:25:19;;;;;;;2.95;2.20;;;;;;;25.51;62.78;100695.34;5107016;28;20181;-85
2022/08/23 04:27:44;;;;;;;2.50;2.13;;;;;;;25.45;63.06;100699.47;5089624;28;20468;-90
2022/08/23 04:30:11;;;;;;;3.15;2.13;;;;;;;25.52;62.75;100710.22;5099372;28;20093;-85
2022/08/23 04:32:36;;;;;;;1.88;1.67;;;;;;;25.61;62.06;100711.84;5089727;28;20027;-85
2022/08/23 04:35:02;;;;;;;2.80;2.22;;;;;;;25.69;61.59;100717.13;5106018;28;20028;-83
2022/08/23 04:37:27;;;;;;;3.30;2.47;;;;;;;25.49;62.14;100714.06;5106066;28;20096;-89
2022/08/23 04:42:37;;;;;;;2.55;1.90;;;;;;;24.98;63.55;100716.09;5107672;28;20127;-87
2022/08/23 04:45:03;;;;;;;1.90;1.70;;;;;;;24.95;67.54;100771.16;5094627;28;20027;-90
2022/08/23 04:47:28;;;;;;;2.20;1.58;;;;;;;24.12;70.66;100779.03;5094897;28;20471;-84
2022/08/23 04:49:54;;;;;;;2.72;2.45;;;;;;;23.72;74.80;100791.88;5107708;28;20032;-93
2022/08/23 04:52:19;;;;;;;2.75;1.98;;;;;;;23.48;74.29;100789.03;5109614;28;20031;-88
2022/08/23 04:54:45;;;;;;;2.67;2.30;;;;;;;22.91;78.64;100796.53;5127072;27;20027;-94
2022/08/23 04:57:11;;;;;;;7.43;2.67;;;;;;;22.33;79.93;100781.03;5076577;28;20032;-84
2022/08/23 04:59:36;;;;;;;3.22;2.38;;;;;;;22.43;82.04;100791.53;5089072;28;20489;-82
2022/08/23 05:02:02;;;;;;;3.63;3.33;;;;;;;22.41;81.80;100794.28;5123345;28;20412;-87
2022/08/23 05:04:28;;;;;;;2.35;2.15;;;;;;;22.28;81.60;100776.19;5106259;28;20135;-84
2022/08/23 05:09:28;;;;;;;2.38;2.17;;;;;;;22.03;80.48;100776.84;5371848;22;20065;-82
2022/08/23 05:11:54;;;;;;;1.00;1.00;;;;;;;21.84;81.47;100769.88;5033921;22;20147;-83
2022/08/23 05:14:20;;;;;;;1.70;1.40;;;;;;;21.45;80.77;100735.75;5008104;28;20044;-84
2022/08/23 05:16:45;;;;;;;1.70;1.60;;;;;;;21.53;82.25;100763.13;5022860;28;20033;-81
2022/08/23 05:19:11;;;;;;;1.60;1.50;;;;;;;21.67;82.34;100762.69;5031794;28;20025;-81
2022/08/23 05:21:36;;;;;;;1.65;1.08;;;;;;;21.72;81.90;100752.56;5028319;28;20473;-82
2022/08/23 05:24:02;;;;;;;2.08;1.58;;;;;;;22.12;79.42;100751.44;5027877;28;20053;-88
2022/08/23 05:26:27;;;;;;;1.05;0.95;;;;;;;21.79;79.12;100724.69;5015079;28;20108;-90
2022/08/23 05:28:53;;;;;;;1.23;1.13;;;;;;;21.98;79.23;100753.56;5015215;28;20399;-87
2022/08/23 05:31:21;;;;;;;1.02;0.82;;;;;;;21.91;78.80;100759.56;5031990;28;20025;-83
2022/08/23 05:33:46;;;;;;;0.95;0.88;;;;;;;22.16;77.72;100763.38;4997413;28;20061;-83
2022/08/23 05:36:13;;;;;;;1.90;1.38;;;;;;;22.30;77.05;100762.88;4991772;28;20085;-84
2022/08/23 05:38:39;;;;;;;1.08;0.98;;;;;;;22.21;77.69;100755.84;4991673;28;20120;-88
2022/08/23 05:41:04;;;;;;;0.73;0.70;;;;;;;22.16;77.58;100769.47;4991656;28;20161;-88
2022/08/23 05:43:30;;;;;;;1.52;1.42;;;;;;;22.29;77.88;100763.84;4976148;28;20085;-92
2022/08/23 05:46:01;;;;;;;2.97;2.70;;;;;;;22.67;76.56;100756.66;4992275;28;20104;-84
2022/08/23 05:48:26;;;;;;;2.30;2.10;;;;;;;22.99;75.23;100753.53;4988575;28;20061;-87
2022/08/23 05:50:52;;;;;;;3.38;2.25;;;;;;;23.32;73.67;100733.50;4991851;28;20026;-84
2022/08/23 05:53:18;;;;;;;3.08;2.47;;;;;;;23.75;72.50;100753.75;4989814;28;20076;-86
2022/08/23 05:55:44;;;;;;;4.95;3.03;;;;;;;23.92;71.83;100760.78;4991543;28;20022;-82
2022/08/23 05:58:09;;;;;;;1.80;1.60;;;;;;;23.86;72.33;100756.13;5007544;28;20068;-83
2022/08/23 06:00:35;;;;;;;2.05;1.40;;;;;;;23.74;72.95;100744.19;4991709;28;20030;-84
2022/08/23 06:03:00;;;;;;;1.02;0.93;;;;;;;23.57;73.62;100751.16;4975729;28;20026;-85
2022/08/23 06:05:26;;;;;;;1.92;1.40;;;;;;;23.44;74.67;100756.03;4992580;28;20486;-84
2022/08/23 06:07:52;;;;;;;3.38;1.77;;;;;;;23.32;75.02;100759.91;4991700;28;20540;-89
2022/08/23 06:10:19;;;;;;;1.02;0.93;;;;;;;23.22;75.32;100748.63;4989747;28;20035;-87
2022/08/23 06:12:45;;;;;;;0.45;0.45;;;;;;;23.36;75.83;100777.91;4992152;28;20037;-87
2022/08/23 06:15:10;;;;;;;1.17;1.02;;;;;;;23.36;75.74;100779.72;5006839;28;20034;-85
2022/08/23 06:17:36;;;;;;;1.15;1.08;;;;;;;23.30;76.83;100788.25;4992670;28;20041;-89
2022/08/23 06:20:02;;;;;;;1.92;1.42;;;;;;;23.33;76.97;100790.59;4974377;28;20125;-88
2022/08/23 06:22:28;;;;;;;1.33;1.23;;;;;;;23.34;77.64;100802.81;4992146;28;20026;-90
2022/08/23 06:24:54;;;;;;;2.00;0.65;;;;;;;23.65;76.13;100801.41;4989758;28;20077;-89
2022/08/23 06:27:20;;;;;;;1.85;1.38;;;;;;;23.96;75.76;100822.88;4986629;28;20031;-87
2022/08/23 06:29:46;;;;;;;0.98;0.90;;;;;;;23.88;75.41;100828.13;5006531;28;20022;-89
2022/08/23 06:32:12;;;;;;;1.23;1.10;;;;;;;23.93;75.23;100820.56;4991016;28;20180;-83
2022/08/23 06:34:37;;;;;;;1.55;1.40;;;;;;;24.43;73.89;100824.28;4981213;28;20046;-86
2022/08/23 06:37:11;;;;;;;3.03;2.72;;;;;;;24.38;73.60;100816.00;4972740;28;20042;-88
2022/08/23 06:39:36;;;;;;;1.20;1.02;;;;;;;24.60;73.44;100831.28;4992052;28;20410;-91
2022/08/23 06:42:12;;;;;;;2.03;1.80;;;;;;;24.57;73.05;100821.84;4974383;28;20034;-85
2022/08/23 06:44:38;;;;;;;2.22;1.83;;;;;;;24.55;72.70;100826.47;4973941;28;20022;-84
2022/08/23 06:47:04;;;;;;;1.60;1.50;;;;;;;24.41;73.37;100820.97;5007294;28;20434;-87
2022/08/23 06:49:30;;;;;;;3.30;2.72;;;;;;;24.55;72.10;100818.53;5004524;28;20114;-89
2022/08/23 06:51:57;;;;;;;2.15;1.38;;;;;;;24.51;72.49;100824.31;4987983;28;20109;-86
2022/08/23 06:54:24;;;;;;;1.45;1.35;;;;;;;24.38;73.61;100830.03;4990294;28;20113;-88
2022/08/23 06:56:49;;;;;;;2.50;2.30;;;;;;;24.43;73.70;100827.75;5005899;28;20037;-87
2022/08/23 06:59:15;;;;;;;4.88;3.95;;;;;;;24.24;74.35;100820.88;4990727;28;20034;-88
2022/08/23 07:01:53;;;;;;;3.10;2.80;;;;;;;24.33;74.19;100824.41;5006293;28;20085;-88
2022/08/23 07:04:23;;;;;;;3.70;2.85;;;;;;;24.19;73.74;100812.63;4990826;28;20086;-90
2022/08/23 07:06:48;;;;;;;2.33;1.67;;;;;;;24.31;73.97;100819.28;4972586;28;20052;-83
2022/08/23 07:09:14;;;;;;;2.17;1.98;;;;;;;24.27;73.52;100807.34;4987701;28;20558;-82
2022/08/23 07:11:40;;;;;;;1.85;1.38;;;;;;;24.48;73.27;100808.75;4988273;28;20086;-89
2022/08/23 07:14:09;;;;;;;1.92;1.73;;;;;;;24.72;73.39;100840.56;4990445;28;20081;-91
2022/08/23 07:16:46;;;;;;;2.30;1.95;;;;;;;24.70;73.25;100839.09;4972840;28;20015;-89
2022/08/23 07:19:12;;;;;;;2.30;2.10;;;;;;;24.77;73.01;100843.56;4987786;28;20390;-83
2022/08/23 07:21:38;;;;;;;1.02;0.90;;;;;;;24.69;73.21;100834.78;4989516;28;20031;-89
2022/08/23 07:24:04;;;;;;;1.38;1.27;;;;;;;24.76;73.22;100843.72;4985476;28;20026;-86
2022/08/23 07:26:29;;;;;;;2.70;1.60;;;;;;;24.67;73.12;100834.94;4986568;28;20467;-89
2022/08/23 07:28:56;;;;;;;1.27;0.82;;;;;;;24.44;73.38;100840.00;4985924;28;20031;-83
2022/08/23 07:31:27;;;;;;;1.08;0.98;;;;;;;24.42;73.67;100836.69;4984437;28;20089;-85
2022/08/23 07:33:53;;;;;;;2.33;2.13;;;;;;;24.52;73.56;100839.19;4968493;28;20030;-85
2022/08/23 07:36:20;;;;;;;3.13;1.63;;;;;;;24.47;72.82;100833.53;4970391;28;20058;-86
2022/08/23 07:38:46;;;;;;;2.00;1.88;;;;;;;24.40;71.93;100835.19;4986838;28;20034;-87
2022/08/23 07:41:12;;;;;;;3.30;3.00;;;;;;;24.43;73.39;100848.09;4991843;28;20122;-92
2022/08/23 07:43:38;;;;;;;2.38;2.17;;;;;;;24.31;73.45;100853.66;4977627;28;20027;-92
2022/08/23 07:46:04;;;;;;;2.13;1.75;;;;;;;24.59;72.50;100867.50;4973757;28;20030;-92
2022/08/23 07:48:29;;;;;;;1.83;1.67;;;;;;;24.66;72.71;100867.66;4989264;28;20030;-87
2022/08/23 07:51:00;;;;;;;1.63;1.52;;;;;;;24.72;72.08;100869.69;4988252;28;20467;-88
2022/08/23 07:53:25;;;;;;;3.67;2.25;;;;;;;24.86;72.08;100866.41;5003583;28;20085;-87
2022/08/23 07:55:51;;;;;;;5.28;2.55;;;;;;;24.81;72.00;100859.94;4971849;28;20034;-88
2022/08/23 07:58:17;;;;;;;3.65;3.13;;;;;;;24.72;72.67;100864.38;4972144;28;20034;-84
2022/08/23 08:00:43;;;;;;;1.63;1.52;;;;;;;24.72;72.47;100876.78;5005733;28;20524;-81
2022/08/23 08:03:10;;;;;;;1.90;1.70;;;;;;;24.70;72.22;100871.66;4973196;28;20095;-84
2022/08/23 08:05:35;;;;;;;2.40;2.20;;;;;;;24.63;72.27;100873.28;4989933;28;20065;-82
2022/08/23 08:08:02;;;;;;;3.20;2.38;;;;;;;24.63;71.83;100883.03;4988760;28;20406;-84
2022/08/23 08:10:27;;;;;;;1.73;1.63;;;;;;;24.94;70.21;100884.13;4989327;28;20072;-83
2022/08/23 08:12:53;;;;;;;2.65;2.45;;;;;;;24.91;70.24;100868.56;4987322;28;20038;-86
2022/08/23 08:15:20;;;;;;;4.18;2.75;;;;;;;24.94;71.48;100885.94;4990638;28;20046;-90
2022/08/23 08:17:47;;;;;;;3.03;2.03;;;;;;;24.80;71.80;100866.22;4993534;28;20048;-92
2022/08/23 08:20:12;;;;;;;2.45;2.25;;;;;;;24.65;73.12;100873.13;4988439;28;20542;-83
2022/08/23 08:22:38;;;;;;;3.55;2.33;;;;;;;24.85;72.71;100879.78;5008594;28;20026;-89
2022/08/23 08:25:04;;;;;;;2.50;1.98;;;;;;;25.04;71.53;100868.94;5007443;28;20036;-87
2022/08/23 08:27:31;;;;;;;4.40;3.38;;;;;;;25.05;71.54;100875.06;4993014;28;20113;-90
2022/08/23 08:29:56;;;;;;;1.88;1.67;;;;;;;24.91;71.80;100868.56;5009787;28;20113;-87
2022/08/23 08:32:22;;;;;;;2.50;2.30;;;;;;;24.75;72.40;100873.81;4971084;28;20523;-88
2022/08/23 08:34:47;;;;;;;2.65;2.35;;;;;;;24.60;72.70;100882.38;4957523;28;20451;-93
2022/08/23 08:37:13;;;;;;;1.98;1.63;;;;;;;24.15;73.57;100872.03;4992447;28;20053;-87
2022/08/23 08:39:44;;;;;;;1.48;1.38;;;;;;;24.20;74.10;100898.84;4994145;28;20064;-89
2022/08/23 08:42:25;;;;;;;1.60;1.50;;;;;;;24.25;73.92;100898.38;4993477;28;20026;-87
2022/08/23 08:44:54;;;;;;;3.83;1.88;;;;;;;24.40;73.63;100910.06;5010003;28;20025;-90
2022/08/23 08:47:49;;;;;;;2.22;2.05;;;;;;;24.41;73.14;100910.88;5008894;28;20026;-91
2022/08/23 08:50:32;;;;;;;1.58;1.48;;;;;;;24.36;73.77;100908.69;5009969;28;20060;-85
2022/08/23 08:53:38;;;;;;;1.88;1.67;;;;;;;24.43;73.91;100907.09;5011954;28;20025;-85
2022/08/23 08:56:13;;;;;;;3.15;2.03;;;;;;;24.34;74.41;100896.63;4935516;29;20488;-85
2022/08/23 08:58:49;;;;;;;2.67;2.47;;;;;;;24.52;73.85;100897.38;4922480;29;20031;-88
2022/08/23 09:01:16;;;;;;;2.92;2.47;;;;;;;24.57;72.80;100897.72;4957037;28;20050;-84
2022/08/23 09:03:41;;;;;;;2.88;2.67;;;;;;;24.29;73.77;100884.69;4994845;28;20067;-83
2022/08/23 09:06:19;;;;;;;2.35;2.15;;;;;;;24.20;74.49;100906.78;4995551;28;20025;-87
2022/08/23 09:09:02;;;;;;;2.17;2.00;;;;;;;23.97;75.46;100906.44;5012349;28;20033;-86
2022/08/23 09:11:46;;;;;;;4.88;2.17;;;;;;;23.70;75.85;100894.22;5011951;28;20100;-90
2022/08/23 09:14:24;;;;;;;2.13;1.25;;;;;;;23.59;76.98;100902.38;5010367;28;20038;-89
2022/08/23 09:16:52;;;;;;;2.80;2.58;;;;;;;23.32;77.38;100887.44;5009558;28;20029;-85
2022/08/23 09:19:19;;;;;;;1.27;1.17;;;;;;;23.24;76.74;100881.25;4992550;28;20029;-85
2022/08/23 09:21:45;;;;;;;1.52;1.42;;;;;;;23.62;76.38;100907.38;4993191;28;20029;-87
2022/08/23 09:24:12;;;;;;;3.67;2.40;;;;;;;23.83;75.56;100901.75;5009944;28;20140;-86
2022/08/23 09:26:37;;;;;;;5.32;1.95;;;;;;;23.86;75.58;100897.97;4993849;28;20068;-84
2022/08/23 09:29:24;;;;;;;2.42;2.03;;;;;;;24.00;75.56;100906.16;4979226;28;20034;-86
2022/08/23 09:31:52;;;;;;;1.30;1.20;;;;;;;24.01;74.94;100891.13;4995116;28;20026;-84
2022/08/23 09:34:36;;;;;;;1.67;1.58;;;;;;;23.77;75.06;100872.47;4995286;28;20034;-83
2022/08/23 09:37:21;;;;;;;2.03;1.83;;;;;;;23.74;75.25;100900.84;5013360;28;20076;-86
2022/08/23 09:40:12;;;;;;;1.77;1.67;;;;;;;23.62;75.08;100896.81;4995211;28;20056;-84
2022/08/23 09:42:38;;;;;;;2.50;1.75;;;;;;;23.70;75.29;100891.59;5013178;28;20041;-83
2022/08/23 09:45:22;;;;;;;2.22;1.58;;;;;;;23.66;74.41;100895.50;5011526;28;20117;-88
2022/08/23 09:47:48;;;;;;;1.60;1.50;;;;;;;23.52;74.21;100879.34;4991709;28;20021;-87
2022/08/23 09:50:46;;;;;;;1.65;1.33;;;;;;;23.58;73.82;100889.28;4993950;28;20025;-88
2022/08/23 09:53:13;;;;;;;1.85;1.05;;;;;;;23.75;73.50;100886.66;4994052;28;20124;-92
2022/08/23 09:55:50;;;;;;;1.55;1.40;;;;;;;23.69;73.55;100891.72;4994708;28;20510;-93
2022/08/23 09:58:43;;;;;;;1.00;0.90;;;;;;;23.91;72.30;100896.53;4995006;28;20447;-83
2022/08/23 10:01:23;;;;;;;2.95;1.48;;;;;;;23.91;71.96;100885.13;4994622;28;20513;-91
2022/08/23 10:04:11;;;;;;;1.00;0.90;;;;;;;24.17;71.37;100883.28;4993168;28;20562;-85
2022/08/23 10:06:37;;;;;;;3.28;0.98;;;;;;;24.06;71.40;100875.63;4992076;28;20022;-84
2022/08/23 10:09:04;;;;;;;1.85;1.33;;;;;;;24.02;70.31;100892.78;4975823;28;20461;-84
2022/08/23 10:11:43;;;;;;;1.10;1.00;;;;;;;23.97;71.64;100890.59;4994364;28;20046;-91
2022/08/23 10:14:13;;;;;;;1.92;1.77;;;;;;;24.08;70.59;100875.47;4993898;28;20558;-86
2022/08/23 10:17:07;;;;;;;1.95;1.70;;;;;;;24.02;71.19;100888.34;5009392;28;20037;-83
2022/08/23 10:19:41;;;;;;;2.95;1.48;;;;;;;24.11;71.17;100885.75;5012456;28;20029;-86
2022/08/23 10:22:25;;;;;;;1.75;1.50;;;;;;;24.15;71.12;100890.53;5011492;28;20546;-86
2022/08/23 10:25:15;;;;;;;1.35;1.25;;;;;;;24.06;71.48;100883.56;5010742;28;20026;-85
2022/08/23 10:31:06;;;;;;;1.02;0.95;;;;;;;23.88;72.14;100872.22;5008996;28;20061;-89
2022/08/23 10:33:47;;;;;;;2.47;1.20;;;;;;;24.38;70.88;100908.53;5009333;28;20025;-87
2022/08/23 10:36:30;;;;;;;2.60;1.70;;;;;;;24.26;70.91;100906.13;5009888;28;20096;-88
2022/08/23 10:39:34;;;;;;;1.30;1.20;;;;;;;24.57;70.45;100921.53;4994408;28;20097;-87
2022/08/23 10:42:15;;;;;;;1.58;1.08;;;;;;;24.22;70.46;100933.88;4934145;29;20121;-87
2022/08/23 10:44:50;;;;;;;1.40;1.30;;;;;;;24.44;70.38;100935.19;4950230;29;20031;-84
2022/08/23 10:47:36;;;;;;;2.38;1.77;;;;;;;24.50;70.26;100941.69;4955506;28;20037;-92
2022/08/23 10:50:07;;;;;;;1.52;1.42;;;;;;;24.70;69.50;100956.31;4993483;28;20115;-84
2022/08/23 10:52:49;;;;;;;2.97;1.65;;;;;;;24.60;69.50;100951.16;4992996;28;20494;-84
2022/08/23 10:55:34;;;;;;;1.05;0.77;;;;;;;24.81;68.90;100958.69;4992731;28;20041;-81
2022/08/23 10:58:01;;;;;;;1.73;1.48;;;;;;;24.88;68.40;100943.81;4994564;28;20026;-85
2022/08/23 11:00:29;;;;;;;2.53;1.48;;;;;;;24.92;68.61;100960.19;4993312;28;20395;-85
2022/08/23 11:02:58;;;;;;;0.82;0.82;;;;;;;24.91;68.89;100963.00;4993516;28;20033;-84
2022/08/23 11:05:28;;;;;;;0.65;0.63;;;;;;;25.02;68.84;100957.47;5008928;28;20118;-83
2022/08/23 11:07:58;;;;;;;1.15;1.00;;;;;;;24.97;69.14;100960.53;4993004;28;20025;-85
2022/08/23 11:10:28;;;;;;;1.60;1.30;;;;;;;24.94;68.80;100937.06;5009466;28;20025;-85
2022/08/23 11:13:19;;;;;;;1.02;0.90;;;;;;;24.86;68.45;100927.25;4992302;28;20092;-88
2022/08/23 11:15:54;;;;;;;2.63;1.30;;;;;;;24.86;69.94;100942.31;5000401;28;20045;-92
2022/08/23 11:18:40;;;;;;;1.10;0.95;;;;;;;25.14;69.03;100948.22;4978173;28;20461;-88
2022/08/23 11:21:24;;;;;;;0.82;0.82;;;;;;;25.22;68.03;100956.19;4990507;28;20109;-92
2022/08/23 11:23:53;;;;;;;1.38;1.27;;;;;;;25.18;68.98;100949.56;4993517;28;20101;-86
2022/08/23 11:26:21;;;;;;;0.98;0.93;;;;;;;25.12;69.80;100944.91;5009546;28;20479;-88
2022/08/23 11:28:47;;;;;;;2.78;2.55;;;;;;;25.22;66.87;100956.19;4991788;28;20073;-85
2022/08/23 11:31:21;;;;;;;1.98;1.55;;;;;;;25.21;70.07;100957.19;4992426;28;20558;-87
2022/08/23 11:33:58;;;;;;;0.88;0.80;;;;;;;25.08;69.96;100933.00;5010127;28;20041;-88
2022/08/23 11:36:24;;;;;;;1.90;1.75;;;;;;;25.25;69.68;100958.50;4991598;28;20402;-89
2022/08/23 11:38:50;;;;;;;1.63;1.48;;;;;;;25.31;70.27;100960.50;4992855;28;20026;-84
2022/08/23 11:41:18;;;;;;;2.05;1.65;;;;;;;25.28;70.25;100955.56;5010046;28;20096;-87
2022/08/23 11:44:02;;;;;;;3.38;1.95;;;;;;;25.12;71.13;100966.09;5011200;28;20026;-85
2022/08/23 11:46:52;;;;;;;1.10;1.00;;;;;;;24.97;69.40;100965.84;5010030;28;20026;-82
2022/08/23 11:49:27;;;;;;;1.73;1.40;;;;;;;24.88;70.39;100972.13;4994007;28;20038;-83
2022/08/23 11:52:15;;;;;;;1.08;1.00;;;;;;;24.80;69.72;100962.31;5007709;28;20915;-82
2022/08/23 11:54:59;;;;;;;2.38;1.65;;;;;;;24.64;69.89;100967.53;5023220;28;20057;-82
2022/08/23 11:57:47;;;;;;;2.72;1.88;;;;;;;24.79;69.79;100955.38;5008530;28;20518;-87
2022/08/23 12:00:27;;;;;;;0.93;0.73;;;;;;;24.55;70.23;100958.72;4991392;28;20029;-83
2022/08/23 12:03:00;;;;;;;1.10;0.98;;;;;;;24.70;71.28;100966.06;4991386;28;20034;-82
2022/08/23 12:05:32;;;;;;;1.80;1.63;;;;;;;24.64;73.51;100966.69;4991405;28;20487;-84
2022/08/23 12:08:04;;;;;;;1.95;1.58;;;;;;;24.67;72.50;100982.25;5008277;28;20404;-88
2022/08/23 12:10:42;;;;;;;2.17;1.67;;;;;;;24.62;71.73;100971.31;5010579;28;20060;-85
2022/08/23 12:13:20;;;;;;;1.38;0.93;;;;;;;24.60;72.15;100976.78;4992020;28;20092;-85
2022/08/23 12:16:12;;;;;;;1.92;1.73;;;;;;;24.96;70.56;100976.59;5016099;28;20128;-84
2022/08/23 12:18:53;;;;;;;1.50;1.17;;;;;;;25.01;69.63;100958.41;4993361;28;20065;-84
2022/08/23 12:21:49;;;;;;;1.35;1.13;;;;;;;25.11;69.95;100964.44;4993158;28;20501;-85
2022/08/23 12:24:19;;;;;;;2.30;1.70;;;;;;;24.87;69.07;100957.19;5008496;28;20537;-84
2022/08/23 12:27:03;;;;;;;1.77;1.60;;;;;;;24.72;69.87;100954.34;5011589;28;20121;-89
2022/08/23 12:29:28;;;;;;;1.05;0.95;;;;;;;24.83;71.45;100946.09;5014188;28;20097;-84
2022/08/23 12:32:23;;;;;;;1.50;1.35;;;;;;;24.98;71.01;100954.28;5013520;28;20137;-84
2022/08/23 12:35:09;;;;;;;1.27;0.90;;;;;;;25.13;70.32;100951.84;5014047;28;20034;-81
2022/08/23 12:38:18;;;;;;;1.67;1.42;;;;;;;25.07;69.15;100948.06;5013741;28;20022;-86
2022/08/23 12:40:49;;;;;;;2.75;1.70;;;;;;;25.00;69.31;100946.19;4935058;29;20038;-85
2022/08/23 12:43:25;;;;;;;1.10;0.88;;;;;;;25.09;68.01;100939.94;4919155;29;20039;-89
2022/08/23 12:45:59;;;;;;;1.10;1.00;;;;;;;25.06;70.07;100927.00;4955225;28;20033;-86
2022/08/23 12:48:26;;;;;;;1.20;1.10;;;;;;;25.19;68.15;100940.63;4996319;28;20398;-83
2022/08/23 12:50:57;;;;;;;1.80;1.60;;;;;;;25.15;68.40;100945.41;4994972;28;20028;-86
2022/08/23 12:53:38;;;;;;;1.52;1.30;;;;;;;25.16;69.00;100940.94;4995341;28;20030;-84
2022/08/23 12:56:26;;;;;;;1.88;1.42;;;;;;;25.09;68.92;100945.25;4995100;28;20100;-85
2022/08/23 12:58:53;;;;;;;2.13;1.88;;;;;;;25.22;68.66;100942.94;4991726;28;20402;-93
2022/08/23 13:01:32;;;;;;;2.30;2.10;;;;;;;25.26;68.41;100946.91;4995632;28;20101;-89
2022/08/23 13:04:12;;;;;;;1.98;1.83;;;;;;;25.11;68.69;100943.25;4995985;28;20032;-82
2022/08/23 13:06:45;;;;;;;1.75;1.42;;;;;;;25.20;69.10;100960.81;4996268;28;20041;-84
2022/08/23 13:09:23;;;;;;;1.85;1.48;;;;;;;25.13;69.05;100959.81;5012106;28;20111;-82
2022/08/23 13:11:49;;;;;;;2.88;1.80;;;;;;;25.04;68.91;100960.75;4978586;28;20541;-83
2022/08/23 13:14:30;;;;;;;1.75;1.38;;;;;;;24.86;69.87;100950.25;4995913;28;20040;-84
2022/08/23 13:16:57;;;;;;;2.10;1.95;;;;;;;24.81;70.29;100953.38;5011599;28;20030;-83
2022/08/23 13:19:27;;;;;;;2.28;1.95;;;;;;;24.82;69.46;100954.22;5012321;28;20032;-87
2022/08/23 13:22:18;;;;;;;2.00;1.55;;;;;;;25.08;69.37;100954.19;5012850;28;20036;-86
2022/08/23 13:24:59;;;;;;;0.50;0.50;;;;;;;24.98;68.19;100948.16;4995128;28;20033;-84
2022/08/23 13:27:27;;;;;;;1.23;1.13;;;;;;;24.86;68.38;100924.63;4996177;28;20076;-83
2022/08/23 13:29:58;;;;;;;1.67;1.58;;;;;;;24.86;67.88;100935.19;4996356;28;20085;-88
2022/08/23 13:32:36;;;;;;;3.00;1.77;;;;;;;24.76;69.49;100934.50;4995388;28;20026;-89
2022/08/23 13:35:22;;;;;;;2.55;2.35;;;;;;;24.95;69.44;100937.88;5011012;28;20030;-83
2022/08/23 13:37:47;;;;;;;2.58;2.17;;;;;;;24.98;69.41;100933.09;5010761;28;20026;-83
2022/08/23 13:40:21;;;;;;;5.30;1.83;;;;;;;25.12;69.59;100931.69;4995502;28;20022;-86
2022/08/23 13:42:48;;;;;;;2.08;1.73;;;;;;;25.16;69.38;100925.06;4979738;28;20402;-85
2022/08/23 13:45:24;;;;;;;1.88;1.60;;;;;;;25.20;68.53;100934.34;4994950;28;20057;-83
2022/08/23 13:48:07;;;;;;;1.55;1.10;;;;;;;25.13;69.59;100934.16;4994888;28;20030;-84
